Time;durP1;ratioP1;P1;durP2;ratioP2;P2;SDS_P1;SDS_P2;PMS_P1;PMS_P2;Temp;Humidity;BMP_temperature;BMP_pressure;BME280_temperature;BME280_humidity;BME280_pressure;Samples;Min_cycle;Max_cycle;Signal;HPM_P1;HPM_P2
2022/12/17 13:06:55;;;;;;;5.53;4.27;;;;;5.20;94477.00;;;;7399786;19;20659;-73
2022/12/17 13:09:26;;;;;;;6.53;4.00;;;;;5.70;94481.00;;;;7395415;19;20148;-73
2022/12/17 13:12:01;;;;;;;5.88;4.10;;;;;5.50;94475.00;;;;7395043;19;20187;-73
2022/12/17 13:14:47;;;;;;;6.40;3.95;;;;;4.80;94468.00;;;;7394615;19;20148;-73
2022/12/17 13:17:33;;;;;;;6.57;4.10;;;;;4.90;94467.00;;;;7397699;19;20157;-74
2022/12/17 13:20:23;;;;;;;8.20;4.70;;;;;5.30;94459.00;;;;7399446;19;20129;-73
2022/12/17 13:23:26;;;;;;;6.47;4.45;;;;;5.70;94467.00;;;;7396955;19;20164;-73
2022/12/17 13:26:14;;;;;;;9.17;5.70;;;;;6.50;94463.00;;;;7396803;19;20133;-72
2022/12/17 13:28:56;;;;;;;11.43;7.90;;;;;6.80;94460.00;;;;7394802;19;20165;-73
2022/12/17 13:31:42;;;;;;;12.32;8.48;;;;;6.80;94460.00;;;;7396037;19;20595;-72
2022/12/17 13:34:35;;;;;;;10.57;7.67;;;;;6.70;94459.00;;;;7398276;19;20607;-73
2022/12/17 13:37:34;;;;;;;12.57;8.00;;;;;6.60;94452.00;;;;7395998;19;20986;-73
2022/12/17 13:40:17;;;;;;;14.70;10.60;;;;;6.10;94460.00;;;;7396892;19;20140;-73
2022/12/17 13:42:46;;;;;;;19.25;12.60;;;;;5.70;94460.00;;;;7396588;19;20507;-73
2022/12/17 13:45:23;;;;;;;12.80;9.00;;;;;5.20;94471.00;;;;7397834;19;20485;-73
2022/12/17 13:47:55;;;;;;;10.03;6.43;;;;;5.00;94475.00;;;;7397606;19;20143;-73
2022/12/17 13:50:30;;;;;;;11.33;7.53;;;;;4.60;94486.00;;;;7395853;19;20133;-73
2022/12/17 13:53:10;;;;;;;8.60;6.67;;;;;3.20;94493.00;;;;7396934;19;20117;-73
2022/12/17 13:55:50;;;;;;;10.83;7.80;;;;;3.10;94499.00;;;;7396797;19;20139;-73
2022/12/17 13:58:24;;;;;;;10.37;7.57;;;;;3.40;94506.00;;;;7395861;19;20137;-73
2022/12/17 14:01:13;;;;;;;13.30;8.57;;;;;3.20;94501.00;;;;7396045;19;20809;-73
2022/12/17 14:03:48;;;;;;;11.93;7.30;;;;;3.10;94511.00;;;;7396897;19;20599;-74
2022/12/17 14:06:36;;;;;;;11.23;7.43;;;;;2.20;94506.00;;;;7396722;19;20200;-73
2022/12/17 14:09:05;;;;;;;10.70;7.03;;;;;2.50;94508.00;;;;7393861;19;20534;-73
2022/12/17 14:14:27;;;;;;;10.10;6.90;;;;;2.10;94525.00;;;;7394892;19;20156;-73
2022/12/17 14:17:08;;;;;;;10.20;6.67;;;;;0.90;94529.00;;;;7392808;19;20168;-73
2022/12/17 14:19:36;;;;;;;11.53;7.47;;;;;-0.20;94534.00;;;;7395649;19;20515;-72
2022/12/17 14:22:19;;;;;;;11.30;7.40;;;;;-1.30;94531.00;;;;7395244;19;20136;-73
2022/12/17 14:24:47;;;;;;;11.83;7.67;;;;;-1.90;94547.00;;;;7395007;19;20148;-72
2022/12/17 14:27:31;;;;;;;11.00;7.23;;;;;-2.40;94542.00;;;;7394557;19;20137;-72
2022/12/17 14:29:59;;;;;;;12.40;8.10;;;;;-2.80;94538.00;;;;7388110;19;20153;-72
2022/12/17 14:32:36;;;;;;;12.30;7.97;;;;;-3.00;94536.00;;;;7397197;19;20137;-72
2022/12/17 14:35:04;;;;;;;14.97;8.77;;;;;-3.20;94538.00;;;;7396936;19;21064;-72
2022/12/17 14:37:31;;;;;;;34.23;18.00;;;;;-3.50;94539.00;;;;7395535;19;20576;-73
2022/12/17 14:40:10;;;;;;;18.60;11.23;;;;;-3.60;94540.00;;;;7395583;19;20160;-72
2022/12/17 14:42:37;;;;;;;15.57;9.43;;;;;-3.70;94548.00;;;;7393064;19;20627;-72
2022/12/17 14:45:26;;;;;;;12.97;8.20;;;;;-4.00;94545.00;;;;7393496;19;20200;-72
2022/12/17 14:48:05;;;;;;;16.53;8.43;;;;;-4.20;94543.00;;;;7392561;19;20196;-74
2022/12/17 14:50:40;;;;;;;22.27;11.67;;;;;-4.30;94545.00;;;;7394759;19;20634;-73
2022/12/17 14:53:26;;;;;;;21.03;13.80;;;;;-4.50;94542.00;;;;7393251;19;20157;-73
2022/12/17 14:56:06;;;;;;;19.17;12.10;;;;;-4.60;94551.00;;;;7392845;19;20148;-73
2022/12/17 14:58:47;;;;;;;51.83;24.77;;;;;-4.80;94553.00;;;;7390928;19;20855;-73
2022/12/17 15:01:15;;;;;;;47.70;22.67;;;;;-4.80;94556.00;;;;7390386;19;20137;-73
2022/12/17 15:03:50;;;;;;;103.17;45.37;;;;;-5.10;94538.00;;;;7387487;19;20143;-74
2022/12/17 15:06:19;;;;;;;50.63;26.80;;;;;-5.30;94553.00;;;;7388190;19;20154;-74
2022/12/17 15:08:48;;;;;;;27.40;15.37;;;;;-5.50;94556.00;;;;7386567;19;20179;-74
2022/12/17 15:11:23;;;;;;;20.40;11.67;;;;;-5.60;94553.00;;;;7387481;19;20457;-74
2022/12/17 15:13:51;;;;;;;20.97;11.13;;;;;-5.80;94557.00;;;;7389988;19;20578;-74
2022/12/17 15:16:23;;;;;;;20.47;11.60;;;;;-5.80;94563.00;;;;7387430;19;20180;-75
2022/12/17 15:19:03;;;;;;;22.20;12.20;;;;;-5.70;94558.00;;;;7389299;19;20137;-75
2022/12/17 15:21:31;;;;;;;21.83;13.80;;;;;-5.90;94565.00;;;;7388419;19;20590;-74
2022/12/17 15:24:10;;;;;;;27.70;13.90;;;;;-6.00;94564.00;;;;7390318;19;20133;-74
2022/12/17 15:26:37;;;;;;;29.07;15.10;;;;;-5.90;94553.00;;;;7389652;19;20134;-74
2022/12/17 15:29:05;;;;;;;24.13;14.50;;;;;-6.00;94565.00;;;;7388262;19;20137;-74
2022/12/17 15:31:39;;;;;;;28.77;15.90;;;;;-6.10;94564.00;;;;7385916;19;20202;-75
2022/12/17 15:34:06;;;;;;;27.10;15.83;;;;;-6.10;94560.00;;;;7389241;19;20584;-76
2022/12/17 15:36:33;;;;;;;26.40;15.80;;;;;-6.30;94573.00;;;;7389089;19;20141;-76
2022/12/17 15:39:08;;;;;;;31.97;16.30;;;;;-6.40;94573.00;;;;7395115;19;20475;-76
2022/12/17 15:44:28;;;;;;;29.43;16.30;;;;;-6.40;94564.00;;;;7396449;19;20132;-76
2022/12/17 15:46:55;;;;;;;32.83;18.17;;;;;-6.60;94584.00;;;;7395965;19;20140;-75
2022/12/17 15:49:22;;;;;;;37.27;18.17;;;;;-6.40;94581.00;;;;7396783;19;20173;-76
2022/12/17 15:51:57;;;;;;;39.43;20.00;;;;;-6.60;94582.00;;;;7394564;19;20171;-76
2022/12/17 15:54:24;;;;;;;33.73;18.00;;;;;-6.80;94571.00;;;;7396619;19;20141;-76
2022/12/17 15:56:53;;;;;;;39.20;19.63;;;;;-6.90;94581.00;;;;7395613;19;20140;-76
2022/12/17 15:59:28;;;;;;;37.17;19.10;;;;;-6.80;94591.00;;;;7395804;19;20133;-75
2022/12/17 16:01:55;;;;;;;37.40;19.93;;;;;-6.60;94579.00;;;;7397641;19;20125;-75
2022/12/17 16:04:22;;;;;;;40.43;20.07;;;;;-6.70;94583.00;;;;7397221;19;20135;-75
2022/12/17 16:06:57;;;;;;;43.63;21.40;;;;;-6.70;94584.00;;;;7395636;19;20152;-75
2022/12/17 16:09:25;;;;;;;40.00;20.67;;;;;-6.60;94599.00;;;;7394306;19;20193;-75
2022/12/17 16:11:54;;;;;;;41.37;22.40;;;;;-6.70;94593.00;;;;7395305;19;20132;-75
2022/12/17 16:14:28;;;;;;;47.40;25.00;;;;;-6.70;94588.00;;;;7394497;19;20179;-75
2022/12/17 16:17:01;;;;;;;42.43;23.10;;;;;-6.60;94589.00;;;;7395578;19;20152;-76
2022/12/17 16:19:36;;;;;;;43.90;22.17;;;;;-6.80;94582.00;;;;7394361;19;20152;-75
2022/12/17 16:22:03;;;;;;;41.83;21.53;;;;;-6.70;94578.00;;;;7396787;19;20137;-75
2022/12/17 16:24:31;;;;;;;42.80;22.47;;;;;-6.80;94574.00;;;;7393973;19;20149;-75
2022/12/17 16:27:05;;;;;;;43.57;21.67;;;;;-6.90;94572.00;;;;7394081;19;20148;-75
2022/12/17 16:29:32;;;;;;;44.50;22.50;;;;;-7.00;94568.00;;;;7396039;19;20139;-75
2022/12/17 16:32:00;;;;;;;38.47;20.27;;;;;-7.00;94565.00;;;;7393221;19;20196;-75
2022/12/17 16:34:33;;;;;;;35.40;20.07;;;;;-7.20;94563.00;;;;7396876;19;20578;-75
2022/12/17 16:37:01;;;;;;;34.30;19.17;;;;;-7.30;94575.00;;;;7395101;19;20152;-75
2022/12/17 16:39:28;;;;;;;33.47;17.77;;;;;-7.20;94569.00;;;;7396091;19;20149;-75
2022/12/17 16:42:03;;;;;;;37.23;19.27;;;;;-7.10;94576.00;;;;7395930;19;20143;-76
2022/12/17 16:44:30;;;;;;;37.17;18.83;;;;;-7.10;94580.00;;;;7396288;19;20133;-76
2022/12/17 16:46:57;;;;;;;40.87;20.80;;;;;-7.10;94581.00;;;;7395590;19;20634;-75
2022/12/17 16:49:32;;;;;;;43.13;20.70;;;;;-7.10;94578.00;;;;7395689;19;20175;-76
2022/12/17 16:52:01;;;;;;;39.77;21.73;;;;;-7.00;94580.00;;;;7392694;19;20133;-75
2022/12/17 16:54:31;;;;;;;42.73;22.47;;;;;-7.20;94579.00;;;;7396036;19;20608;-76
2022/12/17 16:57:05;;;;;;;41.67;21.80;;;;;-7.20;94579.00;;;;7395255;19;20144;-75
2022/12/17 16:59:32;;;;;;;45.27;21.57;;;;;-7.20;94580.00;;;;7396559;19;20139;-75
2022/12/17 17:01:59;;;;;;;41.37;21.07;;;;;-7.40;94581.00;;;;7395072;19;20128;-75
2022/12/17 17:04:34;;;;;;;39.57;19.87;;;;;-7.40;94575.00;;;;7395223;19;20133;-75
2022/12/17 17:07:02;;;;;;;34.67;18.57;;;;;-7.40;94583.00;;;;7395488;19;20600;-75
2022/12/17 17:09:29;;;;;;;40.60;19.77;;;;;-7.50;94586.00;;;;7391457;19;20193;-75
2022/12/17 17:12:07;;;;;;;40.50;18.90;;;;;-7.40;94589.00;;;;7394446;19;20136;-75
2022/12/17 17:14:35;;;;;;;35.43;17.03;;;;;-7.40;94592.00;;;;7393419;19;20598;-75
2022/12/17 17:17:02;;;;;;;37.40;17.60;;;;;-7.40;94594.00;;;;7393702;19;20603;-75
2022/12/17 17:19:43;;;;;;;30.93;14.80;;;;;-7.10;94588.00;;;;7392909;19;20774;-75
2022/12/17 17:22:11;;;;;;;27.80;14.77;;;;;-7.20;94585.00;;;;7394862;19;20139;-75
2022/12/17 17:24:50;;;;;;;28.33;13.80;;;;;-7.40;94593.00;;;;7387318;19;20135;-75
2022/12/17 17:27:19;;;;;;;24.07;12.63;;;;;-7.30;94590.00;;;;7392150;19;20150;-76
2022/12/17 17:29:57;;;;;;;24.57;13.33;;;;;-7.30;94588.00;;;;7388963;19;20152;-76
2022/12/17 17:32:30;;;;;;;25.97;12.77;;;;;-7.50;94588.00;;;;7391378;19;20208;-76
2022/12/17 17:35:04;;;;;;;19.57;11.77;;;;;-7.50;94590.00;;;;7391871;19;20140;-76
2022/12/17 17:37:32;;;;;;;23.80;13.80;;;;;-7.60;94595.00;;;;7394139;19;20160;-75
2022/12/17 17:39:59;;;;;;;24.03;13.10;;;;;-7.40;94595.00;;;;7392433;19;20159;-76
2022/12/17 17:42:33;;;;;;;23.70;12.13;;;;;-7.50;94600.00;;;;7394294;19;20144;-75
2022/12/17 17:45:02;;;;;;;23.40;13.10;;;;;-7.40;94599.00;;;;7392681;19;20137;-76
2022/12/17 17:47:30;;;;;;;24.27;11.77;;;;;-7.50;94592.00;;;;7393124;19;20211;-76
2022/12/17 17:50:05;;;;;;;19.40;10.60;;;;;-7.40;94596.00;;;;7393047;19;20612;-76
2022/12/17 17:52:32;;;;;;;23.60;11.17;;;;;-7.40;94597.00;;;;7390604;19;20382;-76
2022/12/17 17:55:01;;;;;;;20.13;10.87;;;;;-7.40;94593.00;;;;7394206;19;20164;-76
2022/12/17 17:57:35;;;;;;;22.77;11.10;;;;;-7.40;94587.00;;;;7394400;19;20458;-76
2022/12/17 18:00:04;;;;;;;22.33;11.03;;;;;-7.50;94586.00;;;;7391544;19;20552;-75
2022/12/17 18:02:31;;;;;;;22.37;10.57;;;;;-7.50;94592.00;;;;7393002;19;20504;-76
2022/12/17 18:05:06;;;;;;;21.20;11.00;;;;;-7.60;94582.00;;;;7393771;19;20160;-76
2022/12/17 18:07:33;;;;;;;21.90;10.77;;;;;-7.60;94576.00;;;;7393251;19;20162;-75
2022/12/17 18:10:01;;;;;;;20.63;10.03;;;;;-7.70;94577.00;;;;7391633;19;20166;-76
2022/12/17 18:15:21;;;;;;;18.93;9.53;;;;;-7.70;94586.00;;;;7393247;19;20215;-75
2022/12/17 18:18:01;;;;;;;22.03;10.57;;;;;-7.50;94593.00;;;;7392331;19;20477;-76
2022/12/17 18:20:29;;;;;;;21.63;11.30;;;;;-7.60;94598.00;;;;7391277;19;20148;-76
2022/12/17 18:23:03;;;;;;;21.73;11.37;;;;;-7.40;94602.00;;;;7393950;19;20476;-76
2022/12/17 18:25:30;;;;;;;19.23;10.87;;;;;-7.30;94603.00;;;;7393832;19;20151;-76
2022/12/17 18:28:11;;;;;;;21.37;10.67;;;;;-7.20;94605.00;;;;7393958;19;20140;-75
2022/12/17 18:30:45;;;;;;;23.47;11.50;;;;;-6.90;94605.00;;;;7391852;19;20132;-75
2022/12/17 18:33:12;;;;;;;26.60;11.43;;;;;-6.80;94606.00;;;;7391623;19;20192;-76
2022/12/17 18:35:39;;;;;;;18.73;11.50;;;;;-6.90;94610.00;;;;7393905;19;20151;-75
2022/12/17 18:38:14;;;;;;;22.70;11.70;;;;;-7.20;94606.00;;;;7393862;19;20716;-76
2022/12/17 18:40:41;;;;;;;23.87;11.93;;;;;-7.10;94617.00;;;;7391932;19;20137;-75
2022/12/17 18:43:24;;;;;;;23.17;11.80;;;;;-7.00;94611.00;;;;7388890;19;20617;-76
2022/12/17 18:46:03;;;;;;;24.30;12.27;;;;;-7.00;94632.00;;;;7393183;19;20137;-76
2022/12/17 18:48:30;;;;;;;24.37;12.10;;;;;-7.20;94625.00;;;;7390641;19;20144;-75
2022/12/17 18:51:05;;;;;;;24.87;12.30;;;;;-7.20;94632.00;;;;7392113;19;20913;-75
2022/12/17 18:53:33;;;;;;;20.53;11.10;;;;;-7.00;94634.00;;;;7388358;19;20129;-76
2022/12/17 18:56:09;;;;;;;21.87;11.73;;;;;-6.90;94633.00;;;;7390713;19;20604;-75
2022/12/17 18:59:03;;;;;;;22.07;12.37;;;;;-6.80;94631.00;;;;7391617;19;20146;-76
2022/12/17 19:01:33;;;;;;;28.60;16.33;;;;;-6.80;94645.00;;;;7390385;19;20144;-76
2022/12/17 19:04:10;;;;;;;22.73;11.90;;;;;-6.80;94645.00;;;;7391325;19;20133;-76
2022/12/17 19:06:39;;;;;;;38.33;17.80;;;;;-6.80;94645.00;;;;7390932;19;20596;-76
2022/12/17 19:09:14;;;;;;;26.67;13.07;;;;;-6.80;94652.00;;;;7388916;19;20204;-76
2022/12/17 19:11:48;;;;;;;24.00;11.87;;;;;-6.90;94644.00;;;;7391224;19;20136;-76
2022/12/17 19:14:16;;;;;;;35.17;14.30;;;;;-7.10;94642.00;;;;7395712;19;20155;-76
2022/12/17 19:16:44;;;;;;;26.10;14.73;;;;;-7.10;94648.00;;;;7394465;19;20141;-76
2022/12/17 19:19:25;;;;;;;34.00;17.97;;;;;-7.20;94653.00;;;;7397148;19;20231;-76
2022/12/17 19:21:54;;;;;;;26.93;14.07;;;;;-7.20;94660.00;;;;7396235;19;20168;-76
2022/12/17 19:24:29;;;;;;;27.50;13.50;;;;;-7.00;94659.00;;;;7395171;19;20148;-76
2022/12/17 19:26:56;;;;;;;26.13;13.60;;;;;-7.10;94667.00;;;;7396844;19;20484;-76
2022/12/17 19:29:23;;;;;;;24.97;13.37;;;;;-6.90;94660.00;;;;7397098;19;20456;-76
2022/12/17 19:31:58;;;;;;;27.67;13.93;;;;;-6.80;94657.00;;;;7396880;19;20152;-76
2022/12/17 19:34:25;;;;;;;28.90;14.67;;;;;-6.90;94659.00;;;;7395000;19;20477;-76
2022/12/17 19:36:54;;;;;;;31.40;16.33;;;;;-7.00;94674.00;;;;7397213;19;20136;-76
2022/12/17 19:39:28;;;;;;;29.23;14.33;;;;;-7.20;94672.00;;;;7396136;19;20907;-76
2022/12/17 19:41:55;;;;;;;31.03;14.73;;;;;-7.00;94672.00;;;;7397299;19;20151;-76
2022/12/17 19:44:23;;;;;;;26.83;14.27;;;;;-6.80;94663.00;;;;7396354;19;20149;-76
2022/12/17 19:46:58;;;;;;;29.40;15.30;;;;;-7.00;94670.00;;;;7396144;19;20203;-76
2022/12/17 19:49:25;;;;;;;26.93;13.57;;;;;-7.20;94662.00;;;;7397997;19;20135;-76
2022/12/17 19:51:53;;;;;;;28.07;14.63;;;;;-7.20;94662.00;;;;7397610;19;20208;-76
2022/12/17 19:54:27;;;;;;;32.13;15.47;;;;;-7.00;94661.00;;;;7397794;19;20124;-75
2022/12/17 19:56:54;;;;;;;26.77;14.30;;;;;-7.20;94667.00;;;;7397364;19;20195;-76
2022/12/17 19:59:28;;;;;;;33.63;15.50;;;;;-7.30;94666.00;;;;7396469;19;20140;-76
2022/12/17 20:02:03;;;;;;;32.70;14.53;;;;;-7.50;94658.00;;;;7395857;19;20634;-76
2022/12/17 20:04:31;;;;;;;28.27;14.40;;;;;-7.30;94659.00;;;;7395698;19;20513;-76
2022/12/17 20:06:59;;;;;;;30.17;15.40;;;;;-7.30;94660.00;;;;7395795;19;20141;-76
2022/12/17 20:09:33;;;;;;;31.40;16.47;;;;;-7.20;94668.00;;;;7393137;19;20697;-75
2022/12/17 20:12:00;;;;;;;35.70;16.53;;;;;-7.20;94658.00;;;;7395288;19;20503;-76
2022/12/17 20:14:28;;;;;;;30.70;16.53;;;;;-7.00;94664.00;;;;7397259;19;20135;-76
2022/12/17 20:17:15;;;;;;;33.20;17.07;;;;;-6.90;94664.00;;;;7393784;19;20156;-76
2022/12/17 20:19:52;;;;;;;32.37;16.70;;;;;-6.80;94667.00;;;;7397440;19;20899;-76
2022/12/17 20:22:26;;;;;;;41.63;17.23;;;;;-7.00;94675.00;;;;7393731;19;20152;-76
2022/12/17 20:24:53;;;;;;;34.40;17.60;;;;;-7.00;94648.00;;;;7396211;19;20381;-76
2022/12/17 20:27:21;;;;;;;38.30;18.67;;;;;-7.20;94654.00;;;;7394583;19;20196;-76
2022/12/17 20:29:55;;;;;;;34.97;17.50;;;;;-7.20;94650.00;;;;7395405;19;20149;-76
2022/12/17 20:32:22;;;;;;;34.27;17.40;;;;;-7.30;94654.00;;;;7393592;19;20207;-76
2022/12/17 20:34:52;;;;;;;39.37;17.70;;;;;-7.20;94664.00;;;;7394238;19;20152;-75
2022/12/17 20:37:26;;;;;;;40.73;19.00;;;;;-7.10;94659.00;;;;7395757;19;20129;-76
2022/12/17 20:39:53;;;;;;;37.83;17.67;;;;;-7.10;94657.00;;;;7395477;19;20709;-76
2022/12/17 20:42:21;;;;;;;37.67;18.70;;;;;-7.10;94663.00;;;;7393570;19;20216;-77
2022/12/17 20:44:54;;;;;;;36.27;17.53;;;;;-7.00;94665.00;;;;7394333;19;20152;-75
2022/12/17 20:47:22;;;;;;;30.90;16.63;;;;;-7.10;94677.00;;;;7394317;19;20176;-75
2022/12/17 20:49:49;;;;;;;40.27;19.73;;;;;-7.00;94668.00;;;;7395941;19;20135;-75
2022/12/17 20:52:23;;;;;;;32.23;17.43;;;;;-6.90;94676.00;;;;7393920;19;20466;-75
2022/12/17 20:54:51;;;;;;;40.80;17.73;;;;;-7.10;94654.00;;;;7393159;19;20171;-75
2022/12/17 20:57:18;;;;;;;38.87;18.27;;;;;-7.10;94648.00;;;;7393325;19;20148;-75
2022/12/17 20:59:52;;;;;;;33.27;15.53;;;;;-6.90;94660.00;;;;7390681;19;20516;-75
2022/12/17 21:02:25;;;;;;;32.23;16.97;;;;;-7.10;94665.00;;;;7395165;19;20587;-75
2022/12/17 21:04:59;;;;;;;32.77;16.23;;;;;-6.70;94663.00;;;;7394369;19;20607;-75
2022/12/17 21:07:27;;;;;;;37.53;17.73;;;;;-6.80;94655.00;;;;7393380;19;20209;-75
2022/12/17 21:09:54;;;;;;;37.37;19.13;;;;;-7.00;94660.00;;;;7394650;19;20651;-75
2022/12/17 21:13:27;;;;;;;37.50;16.43;;;;;-6.90;94665.00;;;;7394848;19;20134;-75
2022/12/17 21:15:17;;;;;;;30.83;15.80;;;;;-6.90;94655.00;;;;7392303;19;20167;-75
2022/12/17 21:17:57;;;;;;;39.50;16.13;;;;;-6.90;94649.00;;;;7392455;19;20153;-75
2022/12/17 21:20:25;;;;;;;35.53;16.97;;;;;-6.80;94659.00;;;;7393519;19;20135;-75
2022/12/17 21:22:59;;;;;;;40.30;17.93;;;;;-6.90;94660.00;;;;7392842;19;20708;-75
2022/12/17 21:25:26;;;;;;;34.30;16.40;;;;;-6.80;94657.00;;;;7393123;19;20544;-75
2022/12/17 21:27:54;;;;;;;38.13;18.30;;;;;-6.80;94651.00;;;;7392517;19;20196;-75
2022/12/17 21:30:28;;;;;;;36.13;17.40;;;;;-7.10;94656.00;;;;7393524;19;20502;-75
2022/12/17 21:32:55;;;;;;;36.50;16.40;;;;;-7.10;94651.00;;;;7393637;19;20208;-76
2022/12/17 21:35:22;;;;;;;38.00;19.67;;;;;-7.30;94660.00;;;;7386732;19;20136;-76
2022/12/17 21:37:57;;;;;;;33.20;17.20;;;;;-7.30;94670.00;;;;7393590;19;20133;-76
2022/12/17 21:40:24;;;;;;;35.87;17.70;;;;;-7.40;94672.00;;;;7393286;19;20220;-76
2022/12/17 21:43:00;;;;;;;43.77;19.07;;;;;-7.40;94672.00;;;;7393107;19;20132;-75
2022/12/17 21:45:37;;;;;;;37.97;19.33;;;;;-7.30;94683.00;;;;7389934;19;20222;-76
2022/12/17 21:48:06;;;;;;;40.07;18.00;;;;;-7.30;94676.00;;;;7392892;19;20143;-76
2022/12/17 21:50:42;;;;;;;49.50;23.90;;;;;-7.40;94671.00;;;;7391543;19;20139;-75
2022/12/17 21:53:17;;;;;;;36.87;18.20;;;;;-7.30;94679.00;;;;7389527;19;20535;-75
2022/12/17 21:55:45;;;;;;;33.73;17.57;;;;;-7.50;94669.00;;;;7391193;19;20138;-75
2022/12/17 21:58:14;;;;;;;38.53;19.23;;;;;-7.50;94676.00;;;;7390347;19;20257;-75
2022/12/17 22:00:50;;;;;;;39.43;18.30;;;;;-7.80;94671.00;;;;7391992;19;20578;-75
2022/12/17 22:03:18;;;;;;;36.97;18.27;;;;;-7.80;94662.00;;;;7392974;19;20494;-75
2022/12/17 22:05:45;;;;;;;36.07;19.27;;;;;-7.80;94671.00;;;;7391341;19;20147;-75
2022/12/17 22:08:20;;;;;;;33.33;17.20;;;;;-7.70;94683.00;;;;7392859;19;20157;-75
2022/12/17 22:10:48;;;;;;;40.23;18.67;;;;;-7.60;94681.00;;;;7385811;19;20172;-76
2022/12/17 22:16:11;;;;;;;40.33;19.23;;;;;-7.50;94681.00;;;;7389930;19;20913;-76
2022/12/17 22:18:45;;;;;;;39.27;19.57;;;;;-7.60;94678.00;;;;7389536;19;20204;-76
2022/12/17 22:21:20;;;;;;;35.20;19.27;;;;;-7.70;94681.00;;;;7388993;19;20149;-75
2022/12/17 22:23:48;;;;;;;39.87;19.97;;;;;-7.60;94680.00;;;;7389484;19;20182;-75
2022/12/17 22:26:17;;;;;;;43.50;20.13;;;;;-7.70;94676.00;;;;7392890;19;20190;-76
2022/12/17 22:28:52;;;;;;;39.17;19.47;;;;;-8.00;94676.00;;;;7392084;19;20164;-76
2022/12/17 22:34:15;;;;;;;40.30;20.20;;;;;-8.00;94673.00;;;;7388982;19;20181;-75
2022/12/17 22:37:02;;;;;;;46.47;21.17;;;;;-7.90;94681.00;;;;7393539;19;20139;-75
2022/12/17 22:39:56;;;;;;;34.57;17.70;;;;;-7.80;94667.00;;;;7390686;19;20480;-75
2022/12/17 22:46:03;;;;;;;35.50;17.33;;;;;-7.70;94672.00;;;;7394251;19;20135;-75
2022/12/17 22:48:32;;;;;;;37.70;19.77;;;;;-7.80;94677.00;;;;7400828;19;20150;-75
2022/12/17 22:51:11;;;;;;;37.67;18.20;;;;;-7.70;94675.00;;;;7397609;19;20590;-75
2022/12/17 22:54:02;;;;;;;36.03;18.67;;;;;-7.60;94684.00;;;;7397692;19;20164;-75
2022/12/17 22:56:38;;;;;;;40.33;19.23;;;;;-7.50;94681.00;;;;7400359;19;20131;-76
2022/12/17 22:59:25;;;;;;;41.80;19.60;;;;;-7.40;94681.00;;;;7398292;19;20600;-76
2022/12/17 23:02:00;;;;;;;36.90;18.13;;;;;-7.30;94672.00;;;;7399221;19;20638;-75
2022/12/17 23:04:27;;;;;;;34.60;17.90;;;;;-7.30;94663.00;;;;7398460;19;20147;-75
2022/12/17 23:06:55;;;;;;;32.33;17.63;;;;;-7.50;94669.00;;;;7400272;19;20195;-75
2022/12/17 23:09:29;;;;;;;32.20;16.97;;;;;-7.40;94673.00;;;;7396207;19;20139;-75
2022/12/17 23:11:56;;;;;;;36.07;16.67;;;;;-7.50;94679.00;;;;7395690;19;20212;-75
2022/12/17 23:14:24;;;;;;;33.80;16.77;;;;;-7.50;94664.00;;;;7394785;19;20715;-75
2022/12/17 23:17:11;;;;;;;30.53;16.30;;;;;-7.70;94675.00;;;;7395678;19;20143;-75
2022/12/17 23:19:46;;;;;;;34.67;15.40;;;;;-8.00;94683.00;;;;7396560;19;20160;-75
2022/12/17 23:22:20;;;;;;;29.27;15.10;;;;;-7.80;94681.00;;;;7397548;19;20186;-75
2022/12/17 23:24:48;;;;;;;29.27;15.03;;;;;-7.80;94678.00;;;;7397987;19;20162;-75
2022/12/17 23:27:16;;;;;;;33.17;15.77;;;;;-7.80;94676.00;;;;7396548;19;20145;-75
2022/12/17 23:29:50;;;;;;;29.93;15.53;;;;;-7.60;94691.00;;;;7397691;19;20130;-75
2022/12/17 23:32:18;;;;;;;34.20;16.70;;;;;-7.60;94688.00;;;;7396830;19;20149;-75
2022/12/17 23:34:45;;;;;;;34.20;17.20;;;;;-7.60;94672.00;;;;7396447;19;20143;-75
2022/12/17 23:37:19;;;;;;;29.93;15.30;;;;;-7.50;94677.00;;;;7399033;19;20218;-75
2022/12/17 23:39:46;;;;;;;33.37;17.33;;;;;-7.50;94674.00;;;;7399848;19;20157;-76
2022/12/17 23:42:13;;;;;;;31.80;15.27;;;;;-7.50;94661.00;;;;7401712;19;20144;-76
2022/12/17 23:44:48;;;;;;;31.27;16.47;;;;;-7.60;94663.00;;;;7401554;19;20195;-76
2022/12/17 23:47:15;;;;;;;32.63;16.37;;;;;-7.60;94675.00;;;;7400624;19;20530;-76
2022/12/17 23:49:42;;;;;;;49.87;22.87;;;;;-7.50;94681.00;;;;7401530;19;20141;-76
2022/12/17 23:52:17;;;;;;;28.83;15.83;;;;;-7.50;94688.00;;;;7403010;19;20582;-75
2022/12/17 23:54:46;;;;;;;34.13;16.40;;;;;-7.50;94680.00;;;;7399210;19;20458;-75
2022/12/17 23:57:19;;;;;;;36.77;16.10;;;;;-7.40;94674.00;;;;7399855;19;20179;-76
2022/12/17 23:59:53;;;;;;;37.07;16.33;;;;;-7.60;94677.00;;;;7400997;19;20213;-76
